Time;durP1;ratioP1;P1;durP2;ratioP2;P2;SDS_P1;SDS_P2;PMS_P1;PMS_P2;Temp;Humidity;BMP_temperature;BMP_pressure;BME280_temperature;BME280_humidity;BME280_pressure;Samples;Min_cycle;Max_cycle;Signal;HPM_P1;HPM_P2
2023/09/24 05:17:33;;;;;;;;;;;;;;;;;;1484961;26;19929;-47
2023/09/24 05:19:59;;;;;;;;;;;;;;;;;;5031992;28;20290;-45
2023/09/24 05:22:27;;;;;;;;;;;;;;;;;;5031852;28;19909;-45
2023/09/24 05:24:53;;;;;;;;;;;;;;;;;;5032009;28;19917;-45
2023/09/24 05:27:19;;;;;;;;;;;;;;;;;;5031808;28;19909;-46
2023/09/24 05:29:45;;;;;;;;;;;;;;;;;;5031630;28;19940;-46
2023/09/24 05:32:11;;;;;;;;;;;;;;;;;;5031789;28;19913;-48
2023/09/24 05:34:36;;;;;;;;;;;;;;;;;;5032207;28;19909;-45
2023/09/24 05:37:03;;;;;;;;;;;;;;;;;;5031760;28;20371;-46
2023/09/24 05:39:29;;;;;;;;;;;;;;;;;;5031911;28;19952;-46
2023/09/24 05:41:55;;;;;;;;;;;;;;;;;;5031691;28;19961;-49
2023/09/24 05:44:21;;;;;;;;;;;;;;;;;;5031717;28;19909;-47
2023/09/24 05:46:47;;;;;;;;;;;;;;;;;;5031003;28;20303;-47
2023/09/24 05:49:13;;;;;;;;;;;;;;;;;;5031547;28;20402;-47
2023/09/24 05:51:39;;;;;;;;;;;;;;;;;;5032879;28;19909;-46
2023/09/24 05:54:06;;;;;;;;;;;;;;;;;;5033093;28;20280;-46
2023/09/24 05:56:32;;;;;;;;;;;;;;;;;;5029132;28;19917;-47
2023/09/24 05:58:58;;;;;;;;;;;;;;;;;;5030298;28;20433;-46
2023/09/24 06:01:24;;;;;;;;;;;;;;;;;;5031002;28;19913;-46
2023/09/24 06:03:50;;;;;;;;;;;;;;;;;;5031481;28;19949;-49
2023/09/24 06:06:16;;;;;;;;;;;;;;;;;;5031088;28;20434;-46
2023/09/24 06:08:43;;;;;;;;;;;;;;;;;;5031156;28;20008;-49
2023/09/24 06:11:09;;;;;;;;;;;;;;;;;;5031043;28;19909;-45
2023/09/24 06:13:35;;;;;;;;;;;;;;;;;;5031565;28;20287;-48
2023/09/24 06:16:01;;;;;;;;;;;;;;;;;;5030980;28;19913;-46
2023/09/24 06:18:27;;;;;;;;;;;;;;;;;;5030813;28;19925;-46
2023/09/24 06:20:53;;;;;;;;;;;;;;;;;;5030695;28;20384;-50
2023/09/24 06:23:19;;;;;;;;;;;;;;;;;;5030899;28;19909;-46
2023/09/24 06:25:45;;;;;;;;;;;;;;;;;;5030547;28;19960;-45
2023/09/24 06:28:11;;;;;;;;;;;;;;;;;;5030748;28;20291;-45
2023/09/24 06:30:38;;;;;;;;;;;;;;;;;;5031094;28;19913;-46
2023/09/24 06:33:04;;;;;;;;;;;;;;;;;;5030751;28;19975;-46
2023/09/24 06:35:30;;;;;;;;;;;;;;;;;;5030782;28;19952;-44
2023/09/24 06:37:56;;;;;;;;;;;;;;;;;;5030580;28;20051;-48
2023/09/24 06:40:21;;;;;;;;;;;;;;;;;;5030077;28;19919;-44
2023/09/24 06:42:47;;;;;;;;;;;;;;;;;;5030171;28;20303;-46
2023/09/24 06:45:13;;;;;;;;;;;;;;;;;;5030536;28;19952;-47
2023/09/24 06:47:39;;;;;;;;;;;;;;;;;;5030483;28;19913;-49
2023/09/24 06:50:05;;;;;;;;;;;;;;;;;;5030454;28;20383;-45
2023/09/24 06:52:32;;;;;;;;;;;;;;;;;;5030235;28;19909;-46
2023/09/24 06:54:58;;;;;;;;;;;;;;;;;;5030199;28;20252;-45
2023/09/24 06:57:24;;;;;;;;;;;;;;;;;;5030160;28;19916;-46
2023/09/24 06:59:50;;;;;;;;;;;;;;;;;;5030356;28;19913;-45
2023/09/24 07:02:16;;;;;;;;;;;;;;;;;;5029871;28;20007;-45
2023/09/24 07:04:43;;;;;;;;;;;;;;;;;;5030327;28;20000;-44
2023/09/24 07:07:09;;;;;;;;;;;;;;;;;;5030101;28;19916;-49
2023/09/24 07:09:35;;;;;;;;;;;;;;;;;;5029631;28;19909;-48
2023/09/24 07:12:01;;;;;;;;;;;;;;;;;;5029702;28;19962;-50
2023/09/24 07:14:27;;;;;;;;;;;;;;;;;;5029751;28;20489;-46
2023/09/24 07:16:52;;;;;;;;;;;;;;;;;;5028686;28;19932;-46
2023/09/24 07:19:19;;;;;;;;;;;;;;;;;;5027536;28;19924;-46
2023/09/24 07:21:46;;;;;;;;;;;;;;;;;;5028171;28;19920;-45
2023/09/24 07:24:12;;;;;;;;;;;;;;;;;;5008213;28;19917;-45
2023/09/24 07:26:38;;;;;;;;;;;;;;;;;;5008122;28;20372;-46
2023/09/24 07:29:04;;;;;;;;;;;;;;;;;;5008210;28;19945;-46
2023/09/24 07:31:30;;;;;;;;;;;;;;;;;;5008269;28;19910;-45
2023/09/24 07:33:56;;;;;;;;;;;;;;;;;;5008281;28;19953;-45
2023/09/24 07:36:21;;;;;;;;;;;;;;;;;;5008028;28;20372;-47
2023/09/24 07:38:49;;;;;;;;;;;;;;;;;;4990713;28;19941;-47
2023/09/24 07:41:15;;;;;;;;;;;;;;;;;;5008251;28;20307;-46
2023/09/24 07:43:44;;;;;;;;;;;;;;;;;;5007811;28;19925;-46
2023/09/24 07:46:19;;;;;;;;;;;;;;;;;;5007653;28;19924;-46
2023/09/24 07:48:45;;;;;;;;;;;;;;;;;;5007487;28;19909;-47
2023/09/24 07:51:11;;;;;;;;;;;;;;;;;;5007967;28;20875;-47
2023/09/24 07:53:37;;;;;;;;;;;;;;;;;;5007499;28;19909;-48
2023/09/24 07:56:06;;;;;;;;;;;;;;;;;;5007934;28;19916;-46
2023/09/24 07:58:32;;;;;;;;;;;;;;;;;;5007251;28;19909;-46
2023/09/24 08:00:59;;;;;;;;;;;;;;;;;;5007617;28;20000;-45
2023/09/24 08:03:25;;;;;;;;;;;;;;;;;;5007557;28;19917;-46
2023/09/24 08:05:52;;;;;;;;;;;;;;;;;;5008308;28;19905;-46
2023/09/24 08:08:18;;;;;;;;;;;;;;;;;;5008139;28;19936;-45
2023/09/24 08:10:44;;;;;;;;;;;;;;;;;;5007836;28;19953;-47
2023/09/24 08:13:10;;;;;;;;;;;;;;;;;;5007569;28;20063;-45
2023/09/24 08:15:35;;;;;;;;;;;;;;;;;;5007453;28;20301;-46
2023/09/24 08:18:02;;;;;;;;;;;;;;;;;;5007646;28;19913;-46
2023/09/24 08:20:27;;;;;;;;;;;;;;;;;;5007274;28;19914;-46
2023/09/24 08:22:53;;;;;;;;;;;;;;;;;;5007446;28;19909;-44
2023/09/24 08:25:19;;;;;;;;;;;;;;;;;;5008412;28;20288;-46
2023/09/24 08:27:45;;;;;;;;;;;;;;;;;;5007666;28;19916;-45
2023/09/24 08:30:11;;;;;;;;;;;;;;;;;;5007498;28;20002;-46
2023/09/24 08:32:37;;;;;;;;;;;;;;;;;;5007474;28;19915;-48
2023/09/24 08:35:03;;;;;;;;;;;;;;;;;;5007452;28;20008;-44
2023/09/24 08:37:29;;;;;;;;;;;;;;;;;;5007521;28;20483;-47
2023/09/24 08:39:54;;;;;;;;;;;;;;;;;;5007190;28;19917;-46
2023/09/24 08:42:20;;;;;;;;;;;;;;;;;;5007881;28;19976;-46
2023/09/24 08:44:46;;;;;;;;;;;;;;;;;;5007278;28;19959;-45
2023/09/24 08:47:12;;;;;;;;;;;;;;;;;;5007390;28;20396;-47
2023/09/24 08:49:38;;;;;;;;;;;;;;;;;;5007076;28;19916;-49
2023/09/24 08:52:04;;;;;;;;;;;;;;;;;;5007329;28;19917;-44
2023/09/24 08:54:30;;;;;;;;;;;;;;;;;;5007077;28;19917;-45
2023/09/24 08:56:56;;;;;;;;;;;;;;;;;;5007308;28;19971;-44
2023/09/24 08:59:22;;;;;;;;;;;;;;;;;;5007582;28;19917;-44
2023/09/24 09:01:48;;;;;;;;;;;;;;;;;;5007352;28;19921;-47
2023/09/24 09:04:14;;;;;;;;;;;;;;;;;;5007653;28;19914;-44
2023/09/24 09:06:40;;;;;;;;;;;;;;;;;;5011066;28;19910;-45
2023/09/24 09:09:05;;;;;;;;;;;;;;;;;;4993025;28;19910;-46
2023/09/24 09:11:33;;;;;;;;;;;;;;;;;;4993274;28;19909;-44
2023/09/24 09:13:59;;;;;;;;;;;;;;;;;;5010641;28;19910;-47
2023/09/24 09:16:25;;;;;;;;;;;;;;;;;;5025712;28;19916;-48
2023/09/24 09:18:51;;;;;;;;;;;;;;;;;;5030539;28;19917;-41
2023/09/24 09:21:17;;;;;;;;;;;;;;;;;;5030343;28;19917;-41
2023/09/24 09:23:44;;;;;;;;;;;;;;;;;;5030279;28;19952;-42
2023/09/24 09:26:10;;;;;;;;;;;;;;;;;;5030311;28;19967;-42
2023/09/24 09:28:36;;;;;;;;;;;;;;;;;;5029924;28;19909;-42
2023/09/24 09:31:02;;;;;;;;;;;;;;;;;;5031044;28;19940;-41
2023/09/24 09:33:28;;;;;;;;;;;;;;;;;;5030473;28;19910;-40
2023/09/24 09:35:54;;;;;;;;;;;;;;;;;;5030198;28;20372;-42
2023/09/24 09:38:20;;;;;;;;;;;;;;;;;;5030029;28;20009;-42
2023/09/24 09:40:46;;;;;;;;;;;;;;;;;;5011868;28;19959;-42
2023/09/24 09:43:12;;;;;;;;;;;;;;;;;;5030379;28;19909;-41
2023/09/24 09:45:38;;;;;;;;;;;;;;;;;;5030019;28;19912;-42
2023/09/24 09:48:04;;;;;;;;;;;;;;;;;;5030510;28;19921;-40
2023/09/24 09:50:30;;;;;;;;;;;;;;;;;;5030504;28;20380;-41
2023/09/24 09:52:56;;;;;;;;;;;;;;;;;;5029604;28;19935;-41
2023/09/24 09:55:23;;;;;;;;;;;;;;;;;;5029813;28;19906;-42
2023/09/24 09:57:49;;;;;;;;;;;;;;;;;;5029651;28;20334;-42
2023/09/24 10:00:16;;;;;;;;;;;;;;;;;;5029512;28;19991;-41
2023/09/24 10:02:42;;;;;;;;;;;;;;;;;;5029632;28;19909;-42
2023/09/24 10:05:09;;;;;;;;;;;;;;;;;;5029745;28;19920;-41
2023/09/24 10:07:35;;;;;;;;;;;;;;;;;;5011585;28;19909;-41
2023/09/24 10:10:01;;;;;;;;;;;;;;;;;;5011857;28;20273;-43
2023/09/24 10:12:27;;;;;;;;;;;;;;;;;;5029523;28;19916;-41
2023/09/24 10:14:55;;;;;;;;;;;;;;;;;;5029251;28;19932;-44
2023/09/24 10:17:22;;;;;;;;;;;;;;;;;;5010385;28;20330;-41
2023/09/24 10:19:48;;;;;;;;;;;;;;;;;;5029096;28;19913;-42
2023/09/24 10:22:14;;;;;;;;;;;;;;;;;;5029174;28;20005;-41
2023/09/24 10:24:41;;;;;;;;;;;;;;;;;;5028755;28;19956;-43
2023/09/24 10:27:08;;;;;;;;;;;;;;;;;;5029349;28;19946;-41
2023/09/24 10:29:34;;;;;;;;;;;;;;;;;;5029604;28;19909;-42
2023/09/24 10:32:00;;;;;;;;;;;;;;;;;;5029395;28;20402;-41
2023/09/24 10:34:26;;;;;;;;;;;;;;;;;;5027301;28;19917;-43
2023/09/24 10:36:52;;;;;;;;;;;;;;;;;;5024168;28;20563;-43
2023/09/24 10:39:18;;;;;;;;;;;;;;;;;;5029996;28;19913;-43
2023/09/24 10:41:44;;;;;;;;;;;;;;;;;;5030273;28;19913;-41
2023/09/24 10:44:10;;;;;;;;;;;;;;;;;;5029299;28;19913;-42
2023/09/24 10:46:36;;;;;;;;;;;;;;;;;;5029247;28;20008;-41
2023/09/24 10:49:02;;;;;;;;;;;;;;;;;;5029174;28;19975;-42
2023/09/24 10:51:27;;;;;;;;;;;;;;;;;;5049834;28;19916;-41
2023/09/24 10:53:53;;;;;;;;;;;;;;;;;;5042578;28;19913;-43
2023/09/24 10:56:19;;;;;;;;;;;;;;;;;;5029876;28;19909;-44
2023/09/24 10:58:45;;;;;;;;;;;;;;;;;;5027805;28;19959;-44
2023/09/24 11:01:11;;;;;;;;;;;;;;;;;;5029752;28;19960;-42
2023/09/24 11:03:37;;;;;;;;;;;;;;;;;;5026347;28;19939;-42
2023/09/24 11:06:04;;;;;;;;;;;;;;;;;;5043231;28;19966;-43
2023/09/24 11:08:31;;;;;;;;;;;;;;;;;;5029694;28;20018;-42
2023/09/24 11:10:56;;;;;;;;;;;;;;;;;;5027957;28;19943;-44
2023/09/24 11:13:23;;;;;;;;;;;;;;;;;;5025863;28;19960;-42
2023/09/24 11:15:48;;;;;;;;;;;;;;;;;;5037132;28;19987;-42
2023/09/24 11:18:14;;;;;;;;;;;;;;;;;;5040540;28;19921;-42
2023/09/24 11:20:40;;;;;;;;;;;;;;;;;;5043439;28;20385;-42
2023/09/24 11:23:08;;;;;;;;;;;;;;;;;;5031885;28;20134;-43
2023/09/24 11:25:34;;;;;;;;;;;;;;;;;;5027057;28;19920;-44
2023/09/24 11:28:00;;;;;;;;;;;;;;;;;;5027930;28;19913;-42
2023/09/24 11:30:29;;;;;;;;;;;;;;;;;;5028207;28;20442;-43
2023/09/24 11:32:55;;;;;;;;;;;;;;;;;;5026924;28;19956;-42
2023/09/24 11:35:21;;;;;;;;;;;;;;;;;;5025616;28;19951;-45
2023/09/24 11:37:47;;;;;;;;;;;;;;;;;;5028089;28;19917;-42
2023/09/24 11:40:13;;;;;;;;;;;;;;;;;;5027767;28;19913;-43
2023/09/24 11:42:42;;;;;;;;;;;;;;;;;;5029308;28;19909;-42
2023/09/24 11:45:11;;;;;;;;;;;;;;;;;;5028928;28;20020;-44
2023/09/24 11:47:36;;;;;;;;;;;;;;;;;;5028331;28;19940;-42
2023/09/24 11:50:02;;;;;;;;;;;;;;;;;;5028727;28;19909;-41
2023/09/24 11:52:28;;;;;;;;;;;;;;;;;;5011322;28;19909;-42
2023/09/24 11:54:54;;;;;;;;;;;;;;;;;;5028136;28;19952;-43
2023/09/24 11:57:20;;;;;;;;;;;;;;;;;;5026284;28;19925;-43
2023/09/24 11:59:46;;;;;;;;;;;;;;;;;;5029220;28;19910;-43
2023/09/24 12:02:12;;;;;;;;;;;;;;;;;;5010961;28;19913;-42
2023/09/24 12:04:38;;;;;;;;;;;;;;;;;;5027832;28;19956;-42
2023/09/24 12:07:04;;;;;;;;;;;;;;;;;;5027459;28;19913;-42
2023/09/24 12:09:30;;;;;;;;;;;;;;;;;;5025474;28;19913;-43
2023/09/24 12:11:55;;;;;;;;;;;;;;;;;;5027543;28;19913;-42
2023/09/24 12:14:21;;;;;;;;;;;;;;;;;;5028733;28;19997;-43
2023/09/24 12:16:47;;;;;;;;;;;;;;;;;;5029173;28;19909;-42
2023/09/24 12:19:13;;;;;;;;;;;;;;;;;;5028303;28;19917;-42
2023/09/24 12:21:39;;;;;;;;;;;;;;;;;;5028375;28;20356;-42
2023/09/24 12:24:05;;;;;;;;;;;;;;;;;;5028689;28;19913;-42
2023/09/24 12:26:31;;;;;;;;;;;;;;;;;;5028305;28;19913;-44
2023/09/24 12:28:57;;;;;;;;;;;;;;;;;;5028252;28;19909;-42
2023/09/24 12:31:22;;;;;;;;;;;;;;;;;;5028348;28;19952;-41
2023/09/24 12:33:48;;;;;;;;;;;;;;;;;;5029092;28;20515;-44
2023/09/24 12:36:14;;;;;;;;;;;;;;;;;;5029001;28;19909;-44
2023/09/24 12:38:40;;;;;;;;;;;;;;;;;;5028035;28;19917;-43
2023/09/24 12:41:06;;;;;;;;;;;;;;;;;;5030961;28;20268;-41
2023/09/24 12:43:32;;;;;;;;;;;;;;;;;;5030948;28;19916;-43
2023/09/24 12:45:58;;;;;;;;;;;;;;;;;;5030886;28;20377;-41
2023/09/24 12:48:27;;;;;;;;;;;;;;;;;;5031090;28;19909;-41
2023/09/24 12:50:53;;;;;;;;;;;;;;;;;;5030965;28;19909;-44
2023/09/24 12:53:19;;;;;;;;;;;;;;;;;;5031610;28;19916;-44
2023/09/24 12:55:45;;;;;;;;;;;;;;;;;;5030807;28;20506;-43
2023/09/24 12:58:11;;;;;;;;;;;;;;;;;;5031178;28;19952;-43
2023/09/24 13:00:37;;;;;;;;;;;;;;;;;;5030644;28;19999;-46
2023/09/24 13:03:04;;;;;;;;;;;;;;;;;;5030901;28;19996;-43
2023/09/24 13:05:32;;;;;;;;;;;;;;;;;;5030620;28;20021;-41
2023/09/24 13:07:58;;;;;;;;;;;;;;;;;;5030922;28;19935;-41
2023/09/24 13:10:24;;;;;;;;;;;;;;;;;;5030392;28;20437;-42
2023/09/24 13:12:50;;;;;;;;;;;;;;;;;;5030081;28;20276;-41
2023/09/24 13:15:15;;;;;;;;;;;;;;;;;;5031659;28;19916;-42
2023/09/24 13:17:41;;;;;;;;;;;;;;;;;;5030282;28;20591;-42
2023/09/24 13:20:07;;;;;;;;;;;;;;;;;;5030426;28;20016;-41
2023/09/24 13:22:33;;;;;;;;;;;;;;;;;;5030044;28;19948;-42
2023/09/24 13:24:59;;;;;;;;;;;;;;;;;;5030382;28;19909;-42
2023/09/24 13:27:25;;;;;;;;;;;;;;;;;;5030254;28;19915;-42
2023/09/24 13:29:51;;;;;;;;;;;;;;;;;;5030083;28;20384;-42
2023/09/24 13:32:19;;;;;;;;;;;;;;;;;;5030804;28;19909;-42
2023/09/24 13:34:45;;;;;;;;;;;;;;;;;;5030988;28;19992;-42
2023/09/24 13:37:11;;;;;;;;;;;;;;;;;;5029841;28;19971;-42
2023/09/24 13:39:37;;;;;;;;;;;;;;;;;;5029986;28;19909;-42
2023/09/24 13:42:03;;;;;;;;;;;;;;;;;;5029871;28;19959;-42
2023/09/24 13:44:28;;;;;;;;;;;;;;;;;;5030019;28;19916;-43
2023/09/24 13:46:54;;;;;;;;;;;;;;;;;;5029926;28;20003;-42
2023/09/24 13:49:20;;;;;;;;;;;;;;;;;;5029909;28;19913;-43
2023/09/24 13:51:46;;;;;;;;;;;;;;;;;;5030213;28;20395;-43
2023/09/24 13:54:12;;;;;;;;;;;;;;;;;;5029910;28;20222;-43
2023/09/24 13:56:38;;;;;;;;;;;;;;;;;;5029679;28;19913;-42
2023/09/24 13:59:04;;;;;;;;;;;;;;;;;;5029577;28;20292;-42
2023/09/24 14:01:30;;;;;;;;;;;;;;;;;;5029577;28;19913;-43
2023/09/24 14:03:56;;;;;;;;;;;;;;;;;;5029771;28;19963;-44
2023/09/24 14:06:22;;;;;;;;;;;;;;;;;;5029362;28;19909;-44
2023/09/24 14:14:24;;;;;;;;;;;;;;;;;;5029317;28;20007;-45
2023/09/24 14:16:50;;;;;;;;;;;;;;;;;;5029240;28;20004;-45
2023/09/24 14:19:16;;;;;;;;;;;;;;;;;;5029790;28;19992;-45
2023/09/24 14:21:42;;;;;;;;;;;;;;;;;;5029040;28;20104;-45
2023/09/24 14:24:08;;;;;;;;;;;;;;;;;;5029279;28;19936;-42
2023/09/24 14:26:34;;;;;;;;;;;;;;;;;;5029364;28;19945;-43
2023/09/24 14:29:02;;;;;;;;;;;;;;;;;;5028405;28;21460;-43
2023/09/24 14:31:28;;;;;;;;;;;;;;;;;;5029369;28;19970;-42
2023/09/24 14:33:53;;;;;;;;;;;;;;;;;;5029265;28;19909;-43
2023/09/24 14:36:19;;;;;;;;;;;;;;;;;;5029054;28;19910;-43
2023/09/24 14:38:45;;;;;;;;;;;;;;;;;;5029469;28;20291;-43
2023/09/24 14:41:11;;;;;;;;;;;;;;;;;;5028848;28;19913;-44
2023/09/24 14:43:37;;;;;;;;;;;;;;;;;;5028866;28;20008;-47
2023/09/24 14:46:03;;;;;;;;;;;;;;;;;;5028376;28;19960;-43
2023/09/24 14:48:29;;;;;;;;;;;;;;;;;;5028277;28;19920;-43
2023/09/24 14:50:55;;;;;;;;;;;;;;;;;;5028720;28;20008;-45
2023/09/24 14:53:21;;;;;;;;;;;;;;;;;;5027646;28;19956;-42
2023/09/24 14:55:47;;;;;;;;;;;;;;;;;;5029343;28;19913;-44
2023/09/24 14:58:13;;;;;;;;;;;;;;;;;;5028564;28;19920;-45
2023/09/24 15:00:39;;;;;;;;;;;;;;;;;;5029167;28;19917;-43
2023/09/24 15:03:05;;;;;;;;;;;;;;;;;;5028917;28;19955;-42
2023/09/24 15:05:31;;;;;;;;;;;;;;;;;;5028763;28;20544;-44
2023/09/24 15:07:57;;;;;;;;;;;;;;;;;;5027894;28;19917;-44
2023/09/24 15:10:23;;;;;;;;;;;;;;;;;;5007130;28;19913;-49
2023/09/24 15:12:49;;;;;;;;;;;;;;;;;;5009311;28;19945;-46
2023/09/24 15:15:15;;;;;;;;;;;;;;;;;;5009087;28;19914;-44
2023/09/24 15:17:43;;;;;;;;;;;;;;;;;;5012714;28;19956;-44
2023/09/24 15:20:09;;;;;;;;;;;;;;;;;;5027728;28;19909;-46
2023/09/24 15:22:35;;;;;;;;;;;;;;;;;;5026150;28;20343;-46
2023/09/24 15:25:01;;;;;;;;;;;;;;;;;;5026911;28;19931;-45
2023/09/24 15:27:28;;;;;;;;;;;;;;;;;;5026680;28;19959;-45
2023/09/24 15:29:54;;;;;;;;;;;;;;;;;;5026192;28;20008;-46
2023/09/24 15:32:20;;;;;;;;;;;;;;;;;;5009520;28;19992;-48
2023/09/24 15:34:46;;;;;;;;;;;;;;;;;;5026205;28;19913;-45
2023/09/24 15:37:12;;;;;;;;;;;;;;;;;;5026520;28;19917;-45
2023/09/24 15:39:38;;;;;;;;;;;;;;;;;;5026427;28;20368;-44
2023/09/24 15:42:04;;;;;;;;;;;;;;;;;;5019312;28;19917;-47
2023/09/24 15:44:30;;;;;;;;;;;;;;;;;;5024487;28;19999;-45
2023/09/24 15:46:55;;;;;;;;;;;;;;;;;;5024953;28;19967;-46
2023/09/24 15:49:21;;;;;;;;;;;;;;;;;;5026352;28;19920;-47
2023/09/24 15:51:47;;;;;;;;;;;;;;;;;;5025972;28;19928;-45
2023/09/24 15:54:13;;;;;;;;;;;;;;;;;;5008924;28;19955;-45
2023/09/24 15:56:39;;;;;;;;;;;;;;;;;;5008880;28;19967;-47
2023/09/24 15:59:05;;;;;;;;;;;;;;;;;;5026108;28;20047;-47
2023/09/24 16:01:31;;;;;;;;;;;;;;;;;;5025899;28;19924;-46
2023/09/24 16:03:57;;;;;;;;;;;;;;;;;;5008338;28;19909;-46
2023/09/24 16:06:23;;;;;;;;;;;;;;;;;;5026081;28;19956;-46
2023/09/24 16:08:49;;;;;;;;;;;;;;;;;;5026574;28;19909;-49
2023/09/24 16:11:15;;;;;;;;;;;;;;;;;;5022277;28;19921;-45
2023/09/24 16:13:41;;;;;;;;;;;;;;;;;;5009001;28;20011;-46
2023/09/24 16:16:07;;;;;;;;;;;;;;;;;;5010085;28;19928;-46
2023/09/24 16:18:33;;;;;;;;;;;;;;;;;;5010286;28;19921;-46
2023/09/24 16:20:59;;;;;;;;;;;;;;;;;;5024989;28;19984;-45
2023/09/24 16:23:25;;;;;;;;;;;;;;;;;;5025909;28;19958;-46
2023/09/24 16:25:51;;;;;;;;;;;;;;;;;;5011376;28;19917;-46
2023/09/24 16:28:17;;;;;;;;;;;;;;;;;;5026942;28;19943;-46
2023/09/24 16:30:42;;;;;;;;;;;;;;;;;;5036339;28;20376;-50
2023/09/24 16:33:08;;;;;;;;;;;;;;;;;;5027828;28;19916;-48
2023/09/24 16:35:34;;;;;;;;;;;;;;;;;;5026546;28;20375;-47
2023/09/24 16:38:00;;;;;;;;;;;;;;;;;;5026907;28;19917;-46
2023/09/24 16:40:26;;;;;;;;;;;;;;;;;;5027884;28;20507;-49
2023/09/24 16:42:52;;;;;;;;;;;;;;;;;;5009535;28;20004;-46
2023/09/24 16:45:18;;;;;;;;;;;;;;;;;;5026672;28;19913;-46
2023/09/24 16:47:46;;;;;;;;;;;;;;;;;;5026244;28;20407;-48
2023/09/24 16:50:11;;;;;;;;;;;;;;;;;;5026763;28;19913;-48
2023/09/24 16:52:37;;;;;;;;;;;;;;;;;;5026286;28;20299;-47
2023/09/24 16:55:03;;;;;;;;;;;;;;;;;;5026192;28;19913;-46
2023/09/24 16:57:29;;;;;;;;;;;;;;;;;;5026602;28;19956;-48
2023/09/24 16:59:57;;;;;;;;;;;;;;;;;;5025234;28;19959;-46
2023/09/24 17:02:23;;;;;;;;;;;;;;;;;;5029740;28;20192;-46
2023/09/24 17:04:48;;;;;;;;;;;;;;;;;;5020274;28;19913;-47
2023/09/24 17:07:14;;;;;;;;;;;;;;;;;;5019856;28;19917;-46
2023/09/24 17:09:40;;;;;;;;;;;;;;;;;;5009702;28;19920;-48
2023/09/24 17:12:06;;;;;;;;;;;;;;;;;;5016722;28;20423;-46
2023/09/24 17:14:32;;;;;;;;;;;;;;;;;;5026489;28;19996;-44
2023/09/24 17:16:58;;;;;;;;;;;;;;;;;;5023394;28;19940;-49
2023/09/24 17:19:25;;;;;;;;;;;;;;;;;;5011656;28;19921;-47
2023/09/24 17:21:51;;;;;;;;;;;;;;;;;;5027875;28;19991;-46
2023/09/24 17:24:22;;;;;;;;;;;;;;;;;;5027278;28;20387;-45
2023/09/24 17:26:48;;;;;;;;;;;;;;;;;;5021117;28;19913;-45
2023/09/24 17:29:14;;;;;;;;;;;;;;;;;;5027884;28;19913;-46
2023/09/24 17:31:40;;;;;;;;;;;;;;;;;;5028285;28;20292;-46
2023/09/24 17:34:06;;;;;;;;;;;;;;;;;;5027225;28;19916;-45
2023/09/24 17:36:32;;;;;;;;;;;;;;;;;;5028728;28;19913;-46
2023/09/24 17:38:58;;;;;;;;;;;;;;;;;;5028191;28;19913;-45
2023/09/24 17:41:25;;;;;;;;;;;;;;;;;;5011882;28;19940;-46
2023/09/24 17:43:51;;;;;;;;;;;;;;;;;;5025287;28;19913;-46
2023/09/24 17:46:19;;;;;;;;;;;;;;;;;;5025303;28;19920;-45
2023/09/24 17:48:45;;;;;;;;;;;;;;;;;;5029682;28;19909;-46
2023/09/24 17:51:11;;;;;;;;;;;;;;;;;;5027484;28;19917;-45
2023/09/24 17:53:41;;;;;;;;;;;;;;;;;;5010248;28;19913;-45
2023/09/24 17:56:07;;;;;;;;;;;;;;;;;;5009409;28;20008;-45
2023/09/24 17:58:33;;;;;;;;;;;;;;;;;;5028797;28;20012;-47
2023/09/24 18:00:59;;;;;;;;;;;;;;;;;;5024483;28;19917;-46
2023/09/24 18:03:25;;;;;;;;;;;;;;;;;;5027659;28;19913;-46
2023/09/24 18:05:51;;;;;;;;;;;;;;;;;;5028897;28;20383;-46
2023/09/24 18:08:22;;;;;;;;;;;;;;;;;;5011607;28;20216;-45
2023/09/24 18:10:48;;;;;;;;;;;;;;;;;;5028016;28;20326;-47
2023/09/24 18:13:14;;;;;;;;;;;;;;;;;;5026348;28;20012;-46
2023/09/24 18:15:40;;;;;;;;;;;;;;;;;;5028429;28;20440;-47
2023/09/24 18:18:06;;;;;;;;;;;;;;;;;;5028499;28;19955;-47
2023/09/24 18:20:31;;;;;;;;;;;;;;;;;;5028136;28;20493;-48
2023/09/24 18:22:57;;;;;;;;;;;;;;;;;;5027054;28;19913;-45
2023/09/24 18:25:23;;;;;;;;;;;;;;;;;;5008583;28;20414;-49
2023/09/24 18:27:49;;;;;;;;;;;;;;;;;;5026449;28;19921;-45
2023/09/24 18:30:15;;;;;;;;;;;;;;;;;;5025834;28;19920;-46
2023/09/24 18:32:41;;;;;;;;;;;;;;;;;;5025796;28;19921;-48
2023/09/24 18:35:07;;;;;;;;;;;;;;;;;;5028029;28;19960;-44
2023/09/24 18:37:33;;;;;;;;;;;;;;;;;;5026608;28;19913;-47
2023/09/24 18:39:59;;;;;;;;;;;;;;;;;;5022602;28;19913;-47
2023/09/24 18:42:26;;;;;;;;;;;;;;;;;;5018496;28;19957;-46
2023/09/24 18:44:52;;;;;;;;;;;;;;;;;;5008726;28;20482;-48
2023/09/24 18:47:18;;;;;;;;;;;;;;;;;;5025270;28;19925;-49
2023/09/24 18:49:44;;;;;;;;;;;;;;;;;;5024682;28;19913;-45
2023/09/24 18:52:10;;;;;;;;;;;;;;;;;;5001339;28;19917;-49
2023/09/24 18:54:36;;;;;;;;;;;;;;;;;;5020267;28;19913;-49
2023/09/24 18:57:02;;;;;;;;;;;;;;;;;;5024453;28;20442;-47
2023/09/24 18:59:28;;;;;;;;;;;;;;;;;;5004163;28;19914;-48
2023/09/24 19:01:55;;;;;;;;;;;;;;;;;;5020162;28;20284;-46
2023/09/24 19:04:21;;;;;;;;;;;;;;;;;;5027061;28;19936;-45
2023/09/24 19:06:47;;;;;;;;;;;;;;;;;;5026214;28;20407;-45
2023/09/24 19:09:13;;;;;;;;;;;;;;;;;;5026786;28;19959;-45
2023/09/24 19:11:39;;;;;;;;;;;;;;;;;;5025946;28;19916;-46
2023/09/24 19:14:05;;;;;;;;;;;;;;;;;;5026257;28;20319;-46
2023/09/24 19:16:31;;;;;;;;;;;;;;;;;;5016804;28;19920;-47
2023/09/24 19:18:57;;;;;;;;;;;;;;;;;;5039504;28;19939;-46
2023/09/24 19:21:22;;;;;;;;;;;;;;;;;;5025583;28;19964;-46
2023/09/24 19:23:48;;;;;;;;;;;;;;;;;;5027169;28;19917;-46
2023/09/24 19:26:15;;;;;;;;;;;;;;;;;;5008819;28;19913;-45
2023/09/24 19:28:41;;;;;;;;;;;;;;;;;;5025752;28;19962;-46
2023/09/24 19:31:07;;;;;;;;;;;;;;;;;;5025416;28;19913;-47
2023/09/24 19:33:35;;;;;;;;;;;;;;;;;;5027430;28;19935;-48
2023/09/24 19:36:00;;;;;;;;;;;;;;;;;;5019292;28;20000;-46
2023/09/24 19:38:29;;;;;;;;;;;;;;;;;;5016479;28;20189;-46
2023/09/24 19:40:55;;;;;;;;;;;;;;;;;;5025439;28;19924;-46
2023/09/24 19:43:21;;;;;;;;;;;;;;;;;;5024269;28;19920;-47
2023/09/24 19:45:47;;;;;;;;;;;;;;;;;;5024222;28;20444;-45
2023/09/24 19:48:13;;;;;;;;;;;;;;;;;;5024581;28;19960;-45
2023/09/24 19:50:39;;;;;;;;;;;;;;;;;;5026292;28;20299;-48
2023/09/24 19:53:04;;;;;;;;;;;;;;;;;;5023973;28;19916;-47
2023/09/24 19:55:30;;;;;;;;;;;;;;;;;;5027346;28;19917;-47
2023/09/24 19:57:56;;;;;;;;;;;;;;;;;;5028503;28;19913;-45
2023/09/24 20:00:22;;;;;;;;;;;;;;;;;;5023510;28;20383;-47
2023/09/24 20:02:48;;;;;;;;;;;;;;;;;;5027874;28;19921;-47
2023/09/24 20:05:14;;;;;;;;;;;;;;;;;;5026338;28;20379;-48
2023/09/24 20:07:40;;;;;;;;;;;;;;;;;;5006079;28;20051;-44
2023/09/24 20:10:06;;;;;;;;;;;;;;;;;;5026077;28;19913;-48
2023/09/24 20:12:32;;;;;;;;;;;;;;;;;;5026207;28;19964;-46
2023/09/24 20:14:59;;;;;;;;;;;;;;;;;;5023306;28;19920;-45
2023/09/24 20:17:25;;;;;;;;;;;;;;;;;;5024216;28;19913;-49
2023/09/24 20:19:51;;;;;;;;;;;;;;;;;;5027282;28;19913;-50
2023/09/24 20:22:16;;;;;;;;;;;;;;;;;;5025862;28;20249;-46
2023/09/24 20:24:42;;;;;;;;;;;;;;;;;;5026869;28;19959;-47
2023/09/24 20:27:08;;;;;;;;;;;;;;;;;;5023353;28;20571;-46
2023/09/24 20:29:41;;;;;;;;;;;;;;;;;;5018288;28;19999;-46
2023/09/24 20:32:07;;;;;;;;;;;;;;;;;;5023611;28;19917;-48
2023/09/24 20:34:33;;;;;;;;;;;;;;;;;;5023907;28;19921;-46
2023/09/24 20:36:59;;;;;;;;;;;;;;;;;;5023653;28;20271;-45
2023/09/24 20:39:25;;;;;;;;;;;;;;;;;;5025278;28;19944;-45
2023/09/24 20:41:53;;;;;;;;;;;;;;;;;;5022548;28;19917;-46
2023/09/24 20:44:19;;;;;;;;;;;;;;;;;;5023914;28;19945;-47
2023/09/24 20:46:45;;;;;;;;;;;;;;;;;;5024967;28;19951;-45
2023/09/24 20:49:11;;;;;;;;;;;;;;;;;;5023334;28;19913;-44
2023/09/24 20:51:38;;;;;;;;;;;;;;;;;;5026109;28;19988;-46
2023/09/24 20:54:04;;;;;;;;;;;;;;;;;;5022590;28;20315;-44
2023/09/24 20:56:30;;;;;;;;;;;;;;;;;;5022926;28;20114;-45
2023/09/24 20:58:55;;;;;;;;;;;;;;;;;;5007559;28;20445;-44
2023/09/24 21:01:21;;;;;;;;;;;;;;;;;;5007693;28;20012;-44
2023/09/24 21:03:47;;;;;;;;;;;;;;;;;;5027568;28;19913;-46
2023/09/24 21:06:13;;;;;;;;;;;;;;;;;;5013056;28;19909;-46
2023/09/24 21:08:39;;;;;;;;;;;;;;;;;;5027624;28;19936;-45
2023/09/24 21:11:05;;;;;;;;;;;;;;;;;;5009882;28;19995;-44
2023/09/24 21:13:31;;;;;;;;;;;;;;;;;;5025387;28;20003;-45
2023/09/24 21:15:57;;;;;;;;;;;;;;;;;;5030049;28;20317;-47
2023/09/24 21:18:23;;;;;;;;;;;;;;;;;;5029850;28;20097;-46
2023/09/24 21:20:49;;;;;;;;;;;;;;;;;;5030206;28;19916;-47
2023/09/24 21:23:14;;;;;;;;;;;;;;;;;;5028743;28;19913;-47
2023/09/24 21:25:42;;;;;;;;;;;;;;;;;;5030971;28;19913;-46
2023/09/24 21:28:08;;;;;;;;;;;;;;;;;;5028461;28;19913;-47
2023/09/24 21:30:34;;;;;;;;;;;;;;;;;;5030707;28;19913;-46
2023/09/24 21:33:00;;;;;;;;;;;;;;;;;;5028540;28;19927;-46
2023/09/24 21:35:26;;;;;;;;;;;;;;;;;;5011795;28;20628;-44
2023/09/24 21:37:52;;;;;;;;;;;;;;;;;;5010057;28;19935;-46
2023/09/24 21:40:18;;;;;;;;;;;;;;;;;;5030006;28;19909;-46
2023/09/24 21:42:44;;;;;;;;;;;;;;;;;;5029857;28;20407;-45
2023/09/24 21:45:10;;;;;;;;;;;;;;;;;;5029648;28;20007;-46
2023/09/24 21:47:36;;;;;;;;;;;;;;;;;;5030767;28;20336;-46
2023/09/24 21:50:02;;;;;;;;;;;;;;;;;;5030024;28;19963;-45
2023/09/24 21:52:28;;;;;;;;;;;;;;;;;;5030242;28;20276;-46
2023/09/24 21:54:54;;;;;;;;;;;;;;;;;;5030108;28;19909;-45
2023/09/24 21:57:20;;;;;;;;;;;;;;;;;;5030181;28;19959;-46
2023/09/24 21:59:46;;;;;;;;;;;;;;;;;;5029659;28;19966;-44